createdAt,value
2019-05-02T00:01:23.108Z,1.50
2019-05-02T00:03:49.283Z,1.37
2019-05-02T00:06:15.468Z,1.50
2019-05-02T00:08:41.363Z,1.30
2019-05-02T00:11:09.055Z,1.50
2019-05-02T00:13:35.061Z,1.30
2019-05-02T00:16:01.176Z,1.30
2019-05-02T00:18:31.977Z,1.40
2019-05-02T00:20:57.077Z,1.30
2019-05-02T00:23:28.013Z,1.20
2019-05-02T00:25:54.381Z,1.20
2019-05-02T00:28:20.464Z,1.37
2019-05-02T00:30:46.577Z,1.30
2019-05-02T00:33:12.582Z,1.35
2019-05-02T00:35:40.834Z,1.30
2019-05-02T00:38:06.631Z,1.13
2019-05-02T00:40:32.938Z,1.23
2019-05-02T00:42:59.635Z,1.20
2019-05-02T00:45:26.027Z,0.90
2019-05-02T00:47:56.758Z,1.20
2019-05-02T00:50:23.600Z,1.30
2019-05-02T00:52:49.625Z,1.20
2019-05-02T00:55:15.604Z,1.33
2019-05-02T00:57:41.853Z,1.20
2019-05-02T01:00:13.351Z,1.10
2019-05-02T01:02:41.847Z,1.00
2019-05-02T01:05:08.343Z,1.17
2019-05-02T01:07:34.395Z,1.00
2019-05-02T01:10:00.509Z,1.00
2019-05-02T01:12:26.943Z,1.10
2019-05-02T01:14:54.916Z,1.03
2019-05-02T01:17:21.001Z,1.00
2019-05-02T01:19:47.423Z,1.00
2019-05-02T01:22:16.025Z,1.00
2019-05-02T01:24:42.776Z,1.10
2019-05-02T01:27:16.707Z,0.93
2019-05-02T01:29:44.621Z,0.77
2019-05-02T01:32:12.408Z,0.90
2019-05-02T01:34:43.026Z,1.07
2019-05-02T01:37:11.923Z,0.90
2019-05-02T01:39:42.755Z,1.03
2019-05-02T01:42:06.877Z,1.10
2019-05-02T01:44:36.362Z,0.93
2019-05-02T01:47:00.587Z,1.10
2019-05-02T01:49:26.509Z,1.20
2019-05-02T01:51:52.413Z,1.10
2019-05-02T01:54:18.309Z,1.37
2019-05-02T01:56:44.439Z,1.23
2019-05-02T01:59:10.736Z,1.17
2019-05-02T02:01:36.743Z,1.47
2019-05-02T02:04:03.006Z,1.17
2019-05-02T02:06:29.274Z,1.10
2019-05-02T02:08:55.381Z,1.30
2019-05-02T02:11:21.298Z,1.50
2019-05-02T02:13:47.318Z,1.20
2019-05-02T02:16:13.417Z,1.30
2019-05-02T02:18:41.346Z,0.93
2019-05-02T02:21:25.558Z,1.07
2019-05-02T02:23:57.054Z,1.50
2019-05-02T02:26:24.355Z,1.37
2019-05-02T02:28:50.482Z,1.20
2019-05-02T02:31:18.556Z,1.23
2019-05-02T02:33:49.555Z,1.23
2019-05-02T02:36:12.518Z,1.10
2019-05-02T02:38:38.558Z,1.10
2019-05-02T02:41:06.604Z,1.30
2019-05-02T02:43:34.554Z,1.33
2019-05-02T02:46:03.095Z,1.20
2019-05-02T02:48:33.711Z,1.13
2019-05-02T02:50:57.709Z,1.20
2019-05-02T02:53:29.730Z,1.10
2019-05-02T02:56:01.761Z,0.80
2019-05-02T02:58:26.407Z,1.10
2019-05-02T03:00:52.549Z,0.80
2019-05-02T03:03:20.933Z,0.80
2019-05-02T03:05:46.626Z,0.90
2019-05-02T03:08:12.636Z,1.00
2019-05-02T03:10:40.000Z,0.80
2019-05-02T03:13:26.748Z,0.63
2019-05-02T03:16:12.787Z,0.60
2019-05-02T03:18:40.785Z,0.70
2019-05-02T03:21:06.702Z,0.60
2019-05-02T03:23:32.817Z,0.60
2019-05-02T03:25:58.959Z,0.77
2019-05-02T03:28:24.901Z,0.70
2019-05-02T03:30:51.106Z,0.80
2019-05-02T03:33:17.325Z,0.67
2019-05-02T03:35:48.749Z,0.50
2019-05-02T03:38:11.357Z,0.80
2019-05-02T03:40:39.190Z,0.53
2019-05-02T03:43:06.123Z,0.70
2019-05-02T03:45:40.083Z,0.60
2019-05-02T03:48:00.365Z,0.63
2019-05-02T03:50:32.845Z,0.70
2019-05-02T03:52:54.415Z,0.60
2019-05-02T03:55:24.015Z,0.70
2019-05-02T03:57:48.483Z,0.53
2019-05-02T04:00:21.058Z,0.70
2019-05-02T04:02:42.908Z,0.90
2019-05-02T04:05:10.994Z,0.90
2019-05-02T04:07:40.540Z,0.70
2019-05-02T04:10:06.553Z,0.70
2019-05-02T04:12:33.357Z,0.73
2019-05-02T04:14:59.472Z,1.13
2019-05-02T04:17:28.819Z,0.80
2019-05-02T04:19:53.533Z,1.10
2019-05-02T04:22:20.621Z,0.73
2019-05-02T04:24:53.877Z,1.00
2019-05-02T04:27:14.556Z,1.00
2019-05-02T04:29:40.754Z,0.87
2019-05-02T04:32:11.553Z,0.60
2019-05-02T04:34:34.694Z,0.93
2019-05-02T04:37:04.089Z,0.70
2019-05-02T04:39:29.066Z,0.90
2019-05-02T04:41:58.651Z,0.67
2019-05-02T04:44:29.839Z,0.70
2019-05-02T04:47:02.682Z,0.50
2019-05-02T04:49:29.790Z,0.70
2019-05-02T04:52:01.561Z,0.70
2019-05-02T04:54:25.898Z,0.73
2019-05-02T04:56:49.704Z,0.70
2019-05-02T04:59:21.796Z,0.70
2019-05-02T05:01:52.626Z,0.57
2019-05-02T05:04:10.675Z,0.60
2019-05-02T05:06:38.086Z,0.60
2019-05-02T05:09:12.664Z,0.53
2019-05-02T05:11:33.050Z,0.70
2019-05-02T05:14:00.423Z,0.90
2019-05-02T05:16:28.497Z,0.60
2019-05-02T05:18:54.488Z,0.80
2019-05-02T05:21:24.658Z,0.50
2019-05-02T05:24:00.152Z,0.50
2019-05-02T05:26:27.607Z,0.55
2019-05-02T05:28:53.546Z,0.97
2019-05-02T05:31:24.102Z,0.50
2019-05-02T05:33:48.009Z,0.60
2019-05-02T05:36:14.116Z,0.80
2019-05-02T05:38:40.755Z,0.70
2019-05-02T05:41:08.969Z,0.80
2019-05-02T05:43:35.555Z,0.63
2019-05-02T05:46:10.601Z,0.77
2019-05-02T05:48:32.185Z,0.67
2019-05-02T05:50:59.719Z,0.60
2019-05-02T05:53:25.730Z,0.70
2019-05-02T05:55:53.626Z,0.60
2019-05-02T05:58:19.970Z,0.67
2019-05-02T06:00:53.909Z,0.60
2019-05-02T06:03:15.346Z,0.60
2019-05-02T06:05:42.286Z,0.80
2019-05-02T06:08:08.338Z,0.73
2019-05-02T06:10:34.530Z,0.70
2019-05-02T06:13:00.525Z,0.97
2019-05-02T06:15:26.446Z,1.00
2019-05-02T06:17:52.666Z,1.20
2019-05-02T06:20:18.675Z,1.10
2019-05-02T06:22:44.684Z,1.00
2019-05-02T06:25:11.100Z,1.13
2019-05-02T06:27:37.230Z,1.00
2019-05-02T06:30:07.130Z,1.10
2019-05-02T06:32:33.508Z,1.00
2019-05-02T06:34:59.386Z,1.30
2019-05-02T06:37:25.325Z,1.13
2019-05-02T06:39:51.228Z,1.40
2019-05-02T06:42:17.227Z,0.90
2019-05-02T06:44:43.262Z,1.13
2019-05-02T06:47:09.537Z,1.20
2019-05-02T06:49:35.534Z,0.93
2019-05-02T06:52:01.444Z,0.73
2019-05-02T06:54:27.526Z,1.07
2019-05-02T06:56:53.642Z,0.93
2019-05-02T06:59:20.313Z,0.80
2019-05-02T07:01:46.597Z,0.80
2019-05-02T07:04:17.418Z,1.13
2019-05-02T07:06:55.923Z,0.90
2019-05-02T07:09:09.209Z,0.90
2019-05-02T07:11:38.879Z,0.90
2019-05-02T07:14:13.147Z,1.15
2019-05-02T07:16:38.503Z,1.20
2019-05-02T07:19:21.773Z,1.53
2019-05-02T07:21:48.044Z,1.40
2019-05-02T07:24:14.142Z,1.25
2019-05-02T07:26:40.152Z,1.57
2019-05-02T07:29:06.204Z,1.20
2019-05-02T07:31:32.433Z,1.23
2019-05-02T07:33:58.396Z,1.43
2019-05-02T07:36:24.296Z,1.43
2019-05-02T07:38:50.399Z,1.23
2019-05-02T07:41:16.508Z,1.50
2019-05-02T07:43:42.803Z,1.40
2019-05-02T07:46:08.721Z,1.70
2019-05-02T07:48:34.817Z,1.70
2019-05-02T07:51:00.926Z,1.30
2019-05-02T07:53:27.037Z,1.67
2019-05-02T07:55:53.143Z,1.50
2019-05-02T07:58:19.356Z,1.57
2019-05-02T08:00:45.285Z,1.90
2019-05-02T08:03:11.213Z,1.60
2019-05-02T08:05:37.682Z,1.70
2019-05-02T08:08:03.836Z,1.13
2019-05-02T08:10:30.036Z,1.67
2019-05-02T08:12:56.055Z,1.70
2019-05-02T08:15:24.525Z,1.70
2019-05-02T08:17:53.864Z,1.37
2019-05-02T08:20:19.000Z,1.80
2019-05-02T08:22:48.888Z,1.60
2019-05-02T08:25:13.629Z,1.80
2019-05-02T08:27:44.412Z,1.37
2019-05-02T08:30:13.018Z,1.60
2019-05-02T08:32:39.168Z,1.57
2019-05-02T08:35:05.566Z,1.75
2019-05-02T08:37:35.418Z,1.70
2019-05-02T08:39:59.414Z,2.17
2019-05-02T08:42:27.729Z,1.47
2019-05-02T08:44:56.233Z,1.30
2019-05-02T08:47:23.913Z,1.47
2019-05-02T08:49:54.277Z,1.67
2019-05-02T08:52:17.119Z,1.10
2019-05-02T08:54:43.056Z,1.20
2019-05-02T08:57:09.131Z,1.53
2019-05-02T08:59:35.048Z,1.47
2019-05-02T09:02:01.177Z,1.40
2019-05-02T09:04:29.107Z,1.23
2019-05-02T09:06:59.159Z,1.60
2019-05-02T09:09:27.907Z,1.47
2019-05-02T09:12:04.838Z,1.60
2019-05-02T09:14:18.500Z,1.00
2019-05-02T09:16:45.564Z,1.30
2019-05-02T09:19:15.232Z,1.57
2019-05-02T09:21:39.617Z,0.93
2019-05-02T09:24:08.488Z,1.40
2019-05-02T09:26:38.451Z,1.37
2019-05-02T09:29:05.288Z,1.17
2019-05-02T09:31:29.370Z,0.90
2019-05-02T09:33:55.985Z,1.47
2019-05-02T09:36:22.664Z,0.60
2019-05-02T09:38:53.150Z,0.90
2019-05-02T09:41:19.359Z,1.00
2019-05-02T09:43:44.562Z,1.07
2019-05-02T09:46:13.003Z,1.03
2019-05-02T09:48:38.790Z,1.03
2019-05-02T09:51:15.617Z,0.90
2019-05-02T09:53:37.400Z,1.03
2019-05-02T09:56:03.725Z,0.83
2019-05-02T09:58:31.963Z,0.97
2019-05-02T10:01:09.177Z,1.00
2019-05-02T10:03:35.297Z,0.90
2019-05-02T10:06:03.093Z,1.07
2019-05-02T10:08:29.348Z,0.90
2019-05-02T10:10:55.519Z,1.00
2019-05-02T10:13:22.872Z,0.80
2019-05-02T10:15:50.045Z,0.97
2019-05-02T10:18:19.730Z,0.73
2019-05-02T10:20:44.073Z,0.97
2019-05-02T10:23:11.962Z,1.00
2019-05-02T10:25:38.996Z,1.00
2019-05-02T10:28:06.059Z,0.60
2019-05-02T10:30:35.804Z,0.60
2019-05-02T10:33:02.565Z,0.60
2019-05-02T10:35:37.213Z,0.63
2019-05-02T10:37:58.616Z,0.87
2019-05-02T10:40:24.653Z,0.53
2019-05-02T10:42:52.245Z,0.60
2019-05-02T10:45:18.583Z,0.43
2019-05-02T10:47:44.700Z,0.60
2019-05-02T10:50:12.931Z,0.90
2019-05-02T10:52:38.949Z,0.50
2019-05-02T10:55:05.563Z,0.73
2019-05-02T10:57:32.646Z,0.67
2019-05-02T10:59:59.022Z,0.57
2019-05-02T11:02:26.952Z,0.57
2019-05-02T11:05:02.721Z,0.67
2019-05-02T11:07:28.669Z,0.60
2019-05-02T11:09:57.207Z,0.60
2019-05-02T11:12:27.321Z,0.70
2019-05-02T11:15:12.645Z,0.50
2019-05-02T11:17:42.233Z,0.50
2019-05-02T11:20:12.186Z,0.60
2019-05-02T11:22:38.224Z,0.40
2019-05-02T11:25:05.427Z,0.30
2019-05-02T11:27:32.867Z,0.40
2019-05-02T11:29:58.889Z,0.40
2019-05-02T11:32:26.026Z,0.50
2019-05-02T11:34:52.479Z,0.40
2019-05-02T11:37:18.533Z,0.30
2019-05-02T11:39:50.934Z,0.50
2019-05-02T11:42:12.586Z,0.70
2019-05-02T11:44:38.578Z,0.60
2019-05-02T11:47:04.642Z,0.60
2019-05-02T11:49:31.965Z,0.30
2019-05-02T11:51:58.134Z,0.40
2019-05-02T11:54:24.236Z,0.50
2019-05-02T11:56:51.292Z,0.50
2019-05-02T11:59:22.638Z,0.40
2019-05-02T12:01:57.657Z,0.35
2019-05-02T12:04:16.978Z,0.50
2019-05-02T12:06:43.147Z,0.30
2019-05-02T12:09:13.185Z,0.50
2019-05-02T12:11:38.995Z,0.50
2019-05-02T12:14:05.056Z,0.40
2019-05-02T12:16:32.327Z,0.53
2019-05-02T12:19:09.576Z,0.43
2019-05-02T12:21:26.744Z,0.40
2019-05-02T12:23:53.063Z,0.50
2019-05-02T12:26:19.360Z,0.40
2019-05-02T12:28:45.388Z,0.33
2019-05-02T12:31:16.753Z,0.63
2019-05-02T12:33:42.775Z,0.50
2019-05-02T12:36:09.052Z,0.77
2019-05-02T12:38:35.276Z,0.53
2019-05-02T12:41:02.710Z,0.30
2019-05-02T12:43:28.854Z,0.80
2019-05-02T12:45:54.853Z,0.50
2019-05-02T12:48:21.977Z,0.80
2019-05-02T12:50:48.308Z,0.50
2019-05-02T12:53:14.386Z,0.53
2019-05-02T12:55:42.142Z,0.40
2019-05-02T12:58:08.239Z,0.50
2019-05-02T13:00:34.465Z,0.50
2019-05-02T13:03:05.634Z,0.80
2019-05-02T13:05:31.828Z,0.20
2019-05-02T13:07:58.583Z,0.50
2019-05-02T13:10:29.525Z,0.60
2019-05-02T13:12:55.567Z,0.60
2019-05-02T13:15:23.636Z,0.70
2019-05-02T13:17:50.176Z,0.70
2019-05-02T13:20:18.927Z,0.70
2019-05-02T13:23:03.429Z,0.60
2019-05-02T13:25:32.858Z,0.60
2019-05-02T13:27:57.874Z,0.70
2019-05-02T13:30:32.857Z,1.43
2019-05-02T13:32:58.804Z,0.53
2019-05-02T13:35:27.125Z,0.70
2019-05-02T13:37:54.145Z,0.90
2019-05-02T13:40:24.711Z,0.60
2019-05-02T13:42:52.295Z,0.77
2019-05-02T13:45:29.664Z,0.60
2019-05-02T13:47:55.713Z,0.70
2019-05-02T13:50:22.345Z,0.80
2019-05-02T13:52:53.030Z,0.73
2019-05-02T13:55:18.463Z,0.60
2019-05-02T13:57:46.883Z,0.53
2019-05-02T14:00:15.813Z,0.63
2019-05-02T14:02:42.665Z,1.00
2019-05-02T14:05:12.640Z,0.60
2019-05-02T14:07:42.724Z,0.60
2019-05-02T14:10:23.074Z,0.80
2019-05-02T14:13:04.174Z,0.80
2019-05-02T14:15:32.469Z,0.57
2019-05-02T14:17:58.538Z,1.10
2019-05-02T14:20:24.730Z,0.70
2019-05-02T14:22:52.745Z,0.70
2019-05-02T14:25:18.583Z,0.73
2019-05-02T14:27:47.028Z,0.90
2019-05-02T14:30:13.254Z,0.70
2019-05-02T14:32:39.154Z,0.70
2019-05-02T14:35:11.830Z,0.80
2019-05-02T14:37:37.914Z,0.70
2019-05-02T14:40:08.693Z,0.73
2019-05-02T14:42:34.698Z,1.00
2019-05-02T14:45:09.095Z,0.80
2019-05-02T14:47:28.548Z,1.20
2019-05-02T14:49:56.714Z,1.00
2019-05-02T14:52:22.649Z,0.70
2019-05-02T14:54:48.717Z,0.77
2019-05-02T14:57:17.099Z,0.80
2019-05-02T14:59:50.341Z,1.03
2019-05-02T15:02:16.023Z,0.90
2019-05-02T15:04:48.373Z,0.70
2019-05-02T15:07:12.928Z,1.00
2019-05-02T15:09:39.000Z,0.90
2019-05-02T15:12:13.800Z,0.93
2019-05-02T15:14:33.648Z,0.80
2019-05-02T15:17:00.486Z,1.00
2019-05-02T15:19:28.320Z,0.70
2019-05-02T15:21:55.944Z,0.87
2019-05-02T15:24:23.090Z,0.90
2019-05-02T15:26:49.442Z,0.80
2019-05-02T15:29:19.838Z,1.10
2019-05-02T15:31:47.971Z,0.83
2019-05-02T15:34:18.709Z,0.80
2019-05-02T15:36:45.968Z,0.90
2019-05-02T15:41:44.719Z,0.83
2019-05-02T15:44:09.387Z,0.70
2019-05-02T15:46:35.397Z,0.80
2019-05-02T15:49:04.523Z,0.70
2019-05-02T15:51:29.410Z,1.00
2019-05-02T15:54:05.891Z,1.03
2019-05-02T15:56:28.050Z,0.90
2019-05-02T15:58:58.144Z,0.90
2019-05-02T16:01:36.660Z,0.80
2019-05-02T16:04:02.703Z,1.10
2019-05-02T16:06:31.616Z,0.90
2019-05-02T16:08:56.848Z,0.87
2019-05-02T16:11:23.057Z,0.85
2019-05-02T16:13:52.702Z,0.87
2019-05-02T16:16:21.908Z,0.70
2019-05-02T16:18:48.147Z,0.80
2019-05-02T16:21:26.424Z,0.90
2019-05-02T16:24:11.303Z,1.13
2019-05-02T16:26:35.280Z,0.77
2019-05-02T16:29:02.837Z,0.70
2019-05-02T16:31:31.523Z,0.90
2019-05-02T16:33:57.664Z,0.70
2019-05-02T16:36:32.713Z,1.00
2019-05-02T16:38:52.245Z,0.80
2019-05-02T16:41:18.357Z,0.90
2019-05-02T16:43:44.268Z,1.03
2019-05-02T16:46:11.874Z,0.87
2019-05-02T16:48:39.202Z,0.70
2019-05-02T16:51:08.232Z,0.80
2019-05-02T16:53:34.107Z,0.70
2019-05-02T16:56:05.509Z,0.97
2019-05-02T16:58:27.937Z,0.80
2019-05-02T17:00:54.247Z,0.90
2019-05-02T17:03:22.637Z,1.00
2019-05-02T17:05:49.599Z,0.90
2019-05-02T17:08:20.017Z,0.93
2019-05-02T17:10:53.742Z,0.80
2019-05-02T17:13:18.085Z,0.90
2019-05-02T17:15:44.177Z,1.40
2019-05-02T17:18:17.825Z,0.90
2019-05-02T17:20:38.096Z,0.90
2019-05-02T17:23:07.468Z,0.83
2019-05-02T17:25:32.515Z,1.00
2019-05-02T17:28:02.381Z,1.00
2019-05-02T17:30:26.521Z,1.10
2019-05-02T17:32:52.530Z,1.07
2019-05-02T17:35:19.550Z,1.00
2019-05-02T17:37:48.578Z,1.00
2019-05-02T17:40:16.808Z,0.97
2019-05-02T17:42:44.433Z,1.10
2019-05-02T17:45:11.808Z,1.03
2019-05-02T17:47:37.808Z,1.20
2019-05-02T17:50:15.631Z,1.07
2019-05-02T17:52:37.468Z,0.90
2019-05-02T17:55:04.945Z,1.00
2019-05-02T17:57:33.449Z,0.90
2019-05-02T18:00:02.868Z,0.90
2019-05-02T18:02:29.115Z,1.10
2019-05-02T18:04:55.904Z,0.70
2019-05-02T18:07:25.219Z,0.80
2019-05-02T18:09:52.345Z,0.73
2019-05-02T18:12:18.117Z,1.00
2019-05-02T18:14:44.252Z,1.07
2019-05-02T18:17:10.368Z,0.87
2019-05-02T18:19:38.282Z,0.80
2019-05-02T18:22:08.310Z,0.90
2019-05-02T18:24:32.840Z,0.90
2019-05-02T18:26:58.822Z,0.77
2019-05-02T18:29:25.085Z,0.90
2019-05-02T18:31:52.159Z,0.90
2019-05-02T18:34:21.062Z,0.97
2019-05-02T18:36:46.565Z,0.80
2019-05-02T18:39:13.041Z,0.80
2019-05-02T18:41:44.709Z,0.93
2019-05-02T18:44:07.097Z,0.80
2019-05-02T18:46:36.809Z,0.73
2019-05-02T18:49:02.743Z,0.90
2019-05-02T18:51:29.005Z,0.77
2019-05-02T18:53:57.902Z,0.77
2019-05-02T18:56:23.146Z,0.80
2019-05-02T18:58:49.401Z,0.60
2019-05-02T19:01:17.798Z,0.80
2019-05-02T19:03:47.085Z,0.80
2019-05-02T19:06:11.792Z,0.77
2019-05-02T19:08:46.733Z,0.77
2019-05-02T19:11:12.155Z,0.60
2019-05-02T19:13:42.608Z,0.85
2019-05-02T19:16:05.734Z,1.00
2019-05-02T19:18:32.337Z,0.80
2019-05-02T19:21:03.189Z,0.67
2019-05-02T19:23:29.669Z,0.60
2019-05-02T19:25:55.962Z,0.53
2019-05-02T19:28:34.680Z,0.70
2019-05-02T19:31:05.115Z,0.80
2019-05-02T19:33:26.363Z,0.50
2019-05-02T19:35:52.671Z,0.70
2019-05-02T19:38:22.595Z,0.60
2019-05-02T19:40:46.620Z,0.53
2019-05-02T19:43:14.779Z,0.60
2019-05-02T19:45:40.593Z,0.55
2019-05-02T19:48:06.611Z,0.60
2019-05-02T19:50:39.312Z,0.47
2019-05-02T19:53:04.323Z,0.70
2019-05-02T19:55:29.300Z,0.60
2019-05-02T19:57:56.682Z,0.60
2019-05-02T20:00:22.895Z,0.50
2019-05-02T20:02:49.134Z,0.50
2019-05-02T20:05:16.417Z,0.60
2019-05-02T20:07:43.967Z,0.50
2019-05-02T20:10:12.290Z,0.63
2019-05-02T20:12:42.441Z,0.80
2019-05-02T20:17:33.072Z,0.60
2019-05-02T20:20:05.431Z,0.67
2019-05-02T20:22:28.865Z,0.60
2019-05-02T20:25:00.402Z,0.60
2019-05-02T20:27:23.740Z,0.53
2019-05-02T20:29:52.008Z,0.80
2019-05-02T20:32:17.768Z,0.80
2019-05-02T20:34:43.989Z,0.50
2019-05-02T20:37:10.327Z,0.50
2019-05-02T20:39:36.233Z,0.77
2019-05-02T20:42:02.737Z,0.73
2019-05-02T20:44:28.816Z,0.60
2019-05-02T20:46:54.700Z,0.80
2019-05-02T20:49:21.108Z,0.80
2019-05-02T20:51:47.056Z,0.60
2019-05-02T20:54:13.195Z,0.80
2019-05-02T20:56:42.695Z,0.70
2019-05-02T20:59:08.842Z,0.53
2019-05-02T21:01:34.758Z,0.50
2019-05-02T21:04:02.734Z,0.33
2019-05-02T21:06:45.908Z,0.60
2019-05-02T21:09:22.891Z,0.70
2019-05-02T21:11:53.518Z,0.50
2019-05-02T21:14:21.598Z,0.70
2019-05-02T21:16:47.774Z,0.60
2019-05-02T21:19:13.796Z,0.50
2019-05-02T21:21:42.533Z,0.60
2019-05-02T21:24:08.207Z,0.77
2019-05-02T21:26:34.092Z,0.90
2019-05-02T21:29:00.017Z,0.60
2019-05-02T21:31:26.227Z,0.87
2019-05-02T21:33:52.256Z,0.80
2019-05-02T21:36:18.365Z,0.60
2019-05-02T21:38:44.562Z,0.70
2019-05-02T21:41:10.884Z,0.90
2019-05-02T21:43:36.902Z,0.60
2019-05-02T21:46:03.210Z,1.00
2019-05-02T21:48:29.509Z,0.70
2019-05-02T21:51:00.324Z,0.83
2019-05-02T21:53:32.738Z,0.70
2019-05-02T21:56:09.469Z,0.80
2019-05-02T21:58:35.656Z,0.73
2019-05-02T22:01:06.863Z,0.80
2019-05-02T22:03:33.125Z,0.90
2019-05-02T22:05:59.435Z,0.93
2019-05-02T22:08:25.549Z,0.90
2019-05-02T22:10:52.110Z,0.80
2019-05-02T22:13:18.241Z,0.70
2019-05-02T22:15:44.223Z,1.00
2019-05-02T22:18:10.346Z,1.07
2019-05-02T22:20:36.521Z,1.00
2019-05-02T22:23:02.627Z,0.80
2019-05-02T22:25:28.532Z,1.00
2019-05-02T22:27:54.563Z,0.85
2019-05-02T22:30:21.969Z,0.50
2019-05-02T22:32:47.980Z,0.90
2019-05-02T22:35:14.232Z,0.90
2019-05-02T22:37:42.066Z,0.70
2019-05-02T22:40:11.270Z,0.90
2019-05-02T22:42:37.271Z,0.70
2019-05-02T22:45:06.387Z,0.90
2019-05-02T22:47:32.516Z,0.80
2019-05-02T22:49:58.518Z,0.80
2019-05-02T22:52:24.650Z,0.97
2019-05-02T22:54:52.359Z,0.90
2019-05-02T22:57:18.481Z,1.00
2019-05-02T22:59:44.379Z,0.90
2019-05-02T23:02:12.618Z,1.20
2019-05-02T23:04:38.711Z,0.85
2019-05-02T23:07:04.810Z,0.80
2019-05-02T23:09:30.852Z,0.90
2019-05-02T23:11:57.195Z,0.87
2019-05-02T23:14:23.104Z,1.00
2019-05-02T23:16:49.210Z,0.80
2019-05-02T23:19:15.319Z,0.80
2019-05-02T23:21:42.158Z,0.80
2019-05-02T23:24:11.760Z,0.80
2019-05-02T23:26:46.264Z,0.90
2019-05-02T23:29:14.197Z,0.83
2019-05-02T23:31:40.120Z,0.97
2019-05-02T23:34:08.109Z,0.93
2019-05-02T23:36:34.142Z,0.90
